createdAt,value
2023-04-16T00:01:35.537Z,98564.38
2023-04-16T00:04:02.768Z,98568.22
2023-04-16T00:06:29.798Z,98566.31
2023-04-16T00:08:56.512Z,98570.75
2023-04-16T00:11:23.504Z,98566.31
2023-04-16T00:13:50.276Z,98569.78
2023-04-16T00:16:17.157Z,98568.09
2023-04-16T00:18:44.082Z,98565.56
2023-04-16T00:21:11.131Z,98566.34
2023-04-16T00:23:38.148Z,98570.53
2023-04-16T00:26:05.003Z,98574.13
2023-04-16T00:28:31.719Z,98567.03
2023-04-16T00:30:58.567Z,98564.34
2023-04-16T00:33:25.423Z,98567.25
2023-04-16T00:35:52.385Z,98561.91
2023-04-16T00:38:19.151Z,98560.59
2023-04-16T00:40:46.028Z,98569.31
2023-04-16T00:43:22.851Z,98575.81
2023-04-16T00:45:50.346Z,98575.91
2023-04-16T00:48:17.614Z,98568.94
2023-04-16T00:50:45.197Z,98574.50
2023-04-16T00:53:12.285Z,98577.97
2023-04-16T00:55:39.791Z,98580.91
2023-04-16T00:58:06.862Z,98581.41
2023-04-16T01:00:33.697Z,98577.59
2023-04-16T01:03:00.559Z,98584.72
2023-04-16T01:05:27.344Z,98583.84
2023-04-16T01:07:54.060Z,98580.19
2023-04-16T01:10:20.765Z,98580.91
2023-04-16T01:12:48.091Z,98581.88
2023-04-16T01:15:14.925Z,98580.13
2023-04-16T01:17:41.646Z,98584.56
2023-04-16T01:20:08.655Z,98580.41
2023-04-16T01:22:35.505Z,98585.72
2023-04-16T01:25:02.256Z,98584.25
2023-04-16T01:27:29.330Z,98589.84
2023-04-16T01:29:56.365Z,98601.84
2023-04-16T01:32:32.925Z,98594.88
2023-04-16T01:34:59.718Z,98602.63
2023-04-16T01:37:26.628Z,98600.84
2023-04-16T01:39:53.901Z,98596.34
2023-04-16T01:42:20.693Z,98598.03
2023-04-16T01:44:48.947Z,98600.94
2023-04-16T01:47:15.676Z,98596.59
2023-04-16T01:49:43.958Z,98593.56
2023-04-16T01:52:10.856Z,98604.91
2023-04-16T01:54:37.593Z,98596.94
2023-04-16T01:57:04.371Z,98606.94
2023-04-16T01:59:31.415Z,98602.25
2023-04-16T02:02:06.573Z,98608.59
2023-04-16T02:04:33.365Z,98603.13
2023-04-16T02:07:00.193Z,98610.34
2023-04-16T02:09:28.119Z,98605.00
2023-04-16T02:11:55.015Z,98609.38
2023-04-16T02:14:25.401Z,98611.88
2023-04-16T02:16:52.302Z,98611.78
2023-04-16T02:19:36.080Z,98608.78
2023-04-16T02:22:03.104Z,98599.78
2023-04-16T02:24:30.117Z,98605.88
2023-04-16T02:26:58.847Z,98599.34
2023-04-16T02:29:25.599Z,98599.06
2023-04-16T02:31:59.658Z,98582.28
2023-04-16T02:34:27.109Z,98592.91
2023-04-16T02:36:54.997Z,98597.59
2023-04-16T02:39:22.197Z,98611.81
2023-04-16T02:41:48.880Z,98610.16
2023-04-16T02:44:15.721Z,98609.44
2023-04-16T02:46:42.443Z,98600.72
2023-04-16T02:49:09.349Z,98604.34
2023-04-16T02:51:36.252Z,98609.59
2023-04-16T02:54:03.137Z,98606.19
2023-04-16T02:56:30.885Z,98605.47
2023-04-16T02:58:57.547Z,98606.25
2023-04-16T03:01:24.959Z,98601.09
2023-04-16T03:03:51.763Z,98593.38
2023-04-16T03:06:18.511Z,98594.44
2023-04-16T03:08:45.346Z,98596.44
2023-04-16T03:11:12.166Z,98602.81
2023-04-16T03:13:38.890Z,98602.78
2023-04-16T03:16:06.058Z,98596.06
2023-04-16T03:18:32.884Z,98599.50
2023-04-16T03:20:59.746Z,98609.34
2023-04-16T03:23:26.503Z,98612.00
2023-04-16T03:25:53.327Z,98607.50
2023-04-16T03:28:20.408Z,98611.94
2023-04-16T03:30:52.675Z,98617.31
2023-04-16T03:33:20.625Z,98615.69
2023-04-16T03:35:47.356Z,98613.63
2023-04-16T03:38:14.556Z,98624.09
2023-04-16T03:40:41.468Z,98617.78
2023-04-16T03:43:08.498Z,98616.00
2023-04-16T03:45:35.441Z,98619.63
2023-04-16T03:48:02.226Z,98623.31
2023-04-16T03:50:29.158Z,98621.69
2023-04-16T03:52:56.294Z,98624.28
2023-04-16T03:55:23.097Z,98622.81
2023-04-16T03:57:49.821Z,98627.91
2023-04-16T04:00:17.035Z,98624.19
2023-04-16T04:03:17.041Z,98627.00
2023-04-16T04:05:46.074Z,98629.50
2023-04-16T04:08:16.062Z,98627.56
2023-04-16T04:10:42.905Z,98623.13
2023-04-16T04:13:11.391Z,98620.50
2023-04-16T04:15:38.210Z,98617.13
2023-04-16T04:18:05.401Z,98625.72
2023-04-16T04:20:32.192Z,98628.47
2023-04-16T04:22:59.152Z,98632.72
2023-04-16T04:25:26.846Z,98635.56
2023-04-16T04:27:53.895Z,98642.75
2023-04-16T04:30:20.797Z,98644.34
2023-04-16T04:32:47.741Z,98644.44
2023-04-16T04:35:16.027Z,98648.00
2023-04-16T04:37:42.747Z,98655.09
2023-04-16T04:40:14.652Z,98657.56
2023-04-16T04:42:41.386Z,98666.47
2023-04-16T04:45:10.026Z,98653.22
2023-04-16T04:47:36.750Z,98665.34
2023-04-16T04:50:03.759Z,98668.91
2023-04-16T04:52:32.352Z,98672.44
2023-04-16T04:54:59.193Z,98672.25
2023-04-16T04:57:25.923Z,98675.69
2023-04-16T04:59:54.563Z,98668.78
2023-04-16T05:02:21.732Z,98673.94
2023-04-16T05:04:48.596Z,98680.97
2023-04-16T05:07:15.756Z,98687.53
2023-04-16T05:09:42.445Z,98674.19
2023-04-16T05:12:09.220Z,98684.75
2023-04-16T05:14:36.363Z,98692.00
2023-04-16T05:17:03.187Z,98689.47
2023-04-16T05:19:29.896Z,98695.25
2023-04-16T05:21:56.596Z,98691.75
2023-04-16T05:24:23.337Z,98698.09
2023-04-16T05:26:50.055Z,98689.16
2023-04-16T05:29:16.820Z,98697.22
2023-04-16T05:31:43.505Z,98696.09
2023-04-16T05:34:10.285Z,98704.78
2023-04-16T05:36:36.913Z,98701.09
2023-04-16T05:39:03.749Z,98705.59
2023-04-16T05:41:30.567Z,98708.88
2023-04-16T05:43:57.431Z,98708.00
2023-04-16T05:46:24.153Z,98706.50
2023-04-16T05:48:50.913Z,98714.91
2023-04-16T05:51:17.657Z,98723.72
2023-04-16T05:53:44.389Z,98723.53
2023-04-16T05:56:11.058Z,98725.44
2023-04-16T05:58:37.728Z,98717.56
2023-04-16T06:01:04.466Z,98726.63
2023-04-16T06:03:31.336Z,98718.59
2023-04-16T06:05:58.334Z,98723.16
2023-04-16T06:08:25.068Z,98723.03
2023-04-16T06:10:51.783Z,98730.00
2023-04-16T06:13:18.663Z,98726.59
2023-04-16T06:15:45.460Z,98732.47
2023-04-16T06:18:12.264Z,98723.47
2023-04-16T06:20:38.980Z,98732.13
2023-04-16T06:23:05.677Z,98725.25
2023-04-16T06:25:32.412Z,98733.91
2023-04-16T06:27:59.243Z,98734.16
2023-04-16T06:30:26.302Z,98736.84
2023-04-16T06:32:53.684Z,98737.34
2023-04-16T06:35:20.593Z,98735.50
2023-04-16T06:37:47.337Z,98740.03
2023-04-16T06:40:14.272Z,98731.72
2023-04-16T06:42:41.480Z,98733.22
2023-04-16T06:45:09.997Z,98734.78
2023-04-16T06:47:36.832Z,98741.69
2023-04-16T06:50:03.675Z,98734.16
2023-04-16T06:52:30.380Z,98749.56
2023-04-16T06:54:57.089Z,98738.63
2023-04-16T06:57:23.739Z,98750.66
2023-04-16T06:59:50.518Z,98744.81
2023-04-16T07:02:17.596Z,98746.97
2023-04-16T07:04:44.564Z,98743.59
2023-04-16T07:07:11.388Z,98749.66
2023-04-16T07:09:40.952Z,98750.19
2023-04-16T07:12:08.272Z,98745.00
2023-04-16T07:14:35.055Z,98753.84
2023-04-16T07:17:01.780Z,98750.03
2023-04-16T07:19:32.764Z,98757.38
2023-04-16T07:21:59.861Z,98755.25
2023-04-16T07:24:26.575Z,98763.59
2023-04-16T07:26:53.305Z,98763.16
2023-04-16T07:29:19.983Z,98776.47
2023-04-16T07:31:47.083Z,98774.63
2023-04-16T07:34:13.785Z,98769.31
2023-04-16T07:36:40.480Z,98768.25
2023-04-16T07:39:07.374Z,98772.47
2023-04-16T07:41:34.153Z,98771.16
2023-04-16T07:44:00.921Z,98775.34
2023-04-16T07:46:30.729Z,98774.59
2023-04-16T07:49:06.376Z,98773.44
2023-04-16T07:51:33.274Z,98774.69
2023-04-16T07:53:59.975Z,98776.50
2023-04-16T07:56:27.383Z,98782.78
2023-04-16T07:58:54.083Z,98785.91
2023-04-16T08:01:21.446Z,98787.97
2023-04-16T08:03:48.182Z,98801.16
2023-04-16T08:06:15.027Z,98798.41
2023-04-16T08:08:41.715Z,98802.94
2023-04-16T08:11:08.669Z,98801.84
2023-04-16T08:13:35.397Z,98803.97
2023-04-16T08:16:02.300Z,98811.09
2023-04-16T08:18:29.155Z,98810.06
2023-04-16T08:20:55.966Z,98809.94
2023-04-16T08:23:22.670Z,98813.31
2023-04-16T08:25:50.407Z,98812.22
2023-04-16T08:28:18.474Z,98814.78
2023-04-16T08:30:45.747Z,98813.75
2023-04-16T08:33:14.183Z,98809.81
2023-04-16T08:35:41.280Z,98810.91
2023-04-16T08:38:08.026Z,98812.72
2023-04-16T08:40:39.530Z,98800.47
2023-04-16T08:43:13.753Z,98801.75
2023-04-16T08:45:42.904Z,98802.19
2023-04-16T08:48:11.983Z,98797.47
2023-04-16T08:50:40.717Z,98807.91
2023-04-16T08:53:11.332Z,98801.75
2023-04-16T08:55:47.102Z,98814.59
2023-04-16T08:58:15.876Z,98808.34
2023-04-16T09:00:43.564Z,98804.16
2023-04-16T09:03:11.176Z,98802.19
2023-04-16T09:05:38.792Z,98805.09
2023-04-16T09:08:07.004Z,98799.00
2023-04-16T09:10:34.703Z,98809.41
2023-04-16T09:13:01.747Z,98811.97
2023-04-16T09:15:29.499Z,98816.28
2023-04-16T09:17:59.334Z,98821.06
2023-04-16T09:20:26.098Z,98811.22
2023-04-16T09:22:52.874Z,98810.69
2023-04-16T09:25:21.602Z,98809.56
2023-04-16T09:27:51.508Z,98813.38
2023-04-16T09:30:23.887Z,98822.13
2023-04-16T09:32:52.179Z,98825.19
2023-04-16T09:35:19.878Z,98817.63
2023-04-16T09:37:57.056Z,98816.00
2023-04-16T09:40:30.253Z,98823.38
2023-04-16T09:42:58.619Z,98827.31
2023-04-16T09:45:25.544Z,98832.47
2023-04-16T09:47:52.297Z,98833.56
2023-04-16T09:50:20.233Z,98835.53
2023-04-16T09:52:51.293Z,98843.88
2023-04-16T09:55:24.014Z,98844.44
2023-04-16T09:57:58.924Z,98844.09
2023-04-16T10:00:25.749Z,98837.66
2023-04-16T10:03:06.815Z,98835.88
2023-04-16T10:05:33.819Z,98848.63
2023-04-16T10:08:02.106Z,98848.59
2023-04-16T10:10:29.621Z,98849.34
2023-04-16T10:12:56.588Z,98834.09
2023-04-16T10:15:23.509Z,98840.72
2023-04-16T10:17:51.265Z,98844.28
2023-04-16T10:20:18.858Z,98846.03
2023-04-16T10:22:46.148Z,98852.28
2023-04-16T10:25:13.422Z,98854.75
2023-04-16T10:27:40.766Z,98849.41
2023-04-16T10:30:08.627Z,98849.28
2023-04-16T10:32:36.871Z,98850.94
2023-04-16T10:35:04.740Z,98848.88
2023-04-16T10:37:32.510Z,98845.41
2023-04-16T10:40:02.124Z,98848.50
2023-04-16T10:42:29.024Z,98842.25
2023-04-16T10:44:59.513Z,98845.59
2023-04-16T10:47:26.685Z,98843.63
2023-04-16T10:49:53.406Z,98845.13
2023-04-16T10:52:22.389Z,98840.69
2023-04-16T10:54:49.871Z,98838.06
2023-04-16T10:57:17.963Z,98837.91
2023-04-16T10:59:46.029Z,98839.56
2023-04-16T11:02:19.750Z,98843.03
2023-04-16T11:04:48.651Z,98831.94
2023-04-16T11:07:21.476Z,98830.00
2023-04-16T11:10:02.393Z,98838.66
2023-04-16T11:12:29.118Z,98839.81
2023-04-16T11:15:15.358Z,98848.63
2023-04-16T11:17:52.032Z,98840.94
2023-04-16T11:20:24.686Z,98836.56
2023-04-16T11:22:53.004Z,98834.25
2023-04-16T11:25:24.542Z,98841.09
2023-04-16T11:27:52.456Z,98833.31
2023-04-16T11:30:28.373Z,98829.72
2023-04-16T11:32:55.399Z,98832.25
2023-04-16T11:35:22.374Z,98830.06
2023-04-16T11:37:51.877Z,98824.69
2023-04-16T11:40:18.617Z,98829.28
2023-04-16T11:42:45.405Z,98830.59
2023-04-16T11:45:12.807Z,98825.09
2023-04-16T11:47:51.623Z,98822.47
2023-04-16T11:50:23.924Z,98829.44
2023-04-16T11:52:52.688Z,98827.72
2023-04-16T11:55:20.610Z,98827.19
2023-04-16T11:57:47.637Z,98830.91
2023-04-16T12:00:15.073Z,98834.00
2023-04-16T12:02:49.984Z,98823.53
2023-04-16T12:05:33.879Z,98814.56
2023-04-16T12:08:04.050Z,98819.00
2023-04-16T12:10:36.600Z,98820.25
2023-04-16T12:13:19.673Z,98818.75
2023-04-16T12:15:52.250Z,98814.97
2023-04-16T12:18:21.356Z,98815.84
2023-04-16T12:20:48.796Z,98818.31
2023-04-16T12:23:30.285Z,98817.16
2023-04-16T12:26:02.160Z,98815.84
2023-04-16T12:28:34.687Z,98813.44
2023-04-16T12:31:02.867Z,98810.59
2023-04-16T12:33:29.825Z,98812.25
2023-04-16T12:35:56.678Z,98813.91
2023-04-16T12:38:24.623Z,98817.94
2023-04-16T12:40:52.148Z,98813.59
2023-04-16T12:43:19.868Z,98822.16
2023-04-16T12:45:46.803Z,98810.88
2023-04-16T12:48:13.601Z,98801.84
2023-04-16T12:50:40.416Z,98807.56
2023-04-16T12:53:07.211Z,98800.78
2023-04-16T12:55:33.970Z,98805.25
2023-04-16T12:58:00.966Z,98792.72
2023-04-16T13:00:27.889Z,98789.16
2023-04-16T13:02:54.842Z,98784.13
2023-04-16T13:05:21.753Z,98786.53
2023-04-16T13:07:48.526Z,98785.72
2023-04-16T13:10:15.363Z,98790.78
2023-04-16T13:12:42.109Z,98793.66
2023-04-16T13:15:09.777Z,98784.09
2023-04-16T13:17:36.485Z,98788.47
2023-04-16T13:20:03.320Z,98786.78
2023-04-16T13:22:30.349Z,98788.88
2023-04-16T13:25:00.367Z,98792.56
2023-04-16T13:27:27.120Z,98786.69
2023-04-16T13:29:53.953Z,98782.44
2023-04-16T13:32:21.096Z,98785.72
2023-04-16T13:34:47.901Z,98796.56
2023-04-16T13:37:14.667Z,98796.78
2023-04-16T13:39:41.468Z,98793.94
2023-04-16T13:42:08.334Z,98790.13
2023-04-16T13:44:35.148Z,98792.59
2023-04-16T13:47:01.970Z,98783.47
2023-04-16T13:49:28.911Z,98794.34
2023-04-16T13:51:55.744Z,98795.97
2023-04-16T13:54:22.583Z,98794.84
2023-04-16T13:56:51.146Z,98800.97
2023-04-16T13:59:18.356Z,98789.91
2023-04-16T14:01:45.206Z,98806.09
2023-04-16T14:04:11.997Z,98801.69
2023-04-16T14:06:38.772Z,98793.41
2023-04-16T14:09:05.948Z,98796.13
2023-04-16T14:11:32.827Z,98795.66
2023-04-16T14:13:59.649Z,98787.97
2023-04-16T14:16:27.329Z,98799.38
2023-04-16T14:18:54.178Z,98792.09
2023-04-16T14:21:20.952Z,98797.78
2023-04-16T14:23:47.705Z,98796.06
2023-04-16T14:26:14.578Z,98804.00
2023-04-16T14:28:41.886Z,98794.31
2023-04-16T14:31:08.744Z,98799.91
2023-04-16T14:33:35.566Z,98800.97
2023-04-16T14:36:03.651Z,98795.81
2023-04-16T14:38:31.296Z,98794.53
2023-04-16T14:40:58.217Z,98800.16
2023-04-16T14:43:24.978Z,98800.34
2023-04-16T14:45:52.747Z,98791.13
2023-04-16T14:48:19.837Z,98787.19
2023-04-16T14:50:46.716Z,98786.81
2023-04-16T14:53:13.615Z,98789.72
2023-04-16T14:55:40.455Z,98785.72
2023-04-16T14:58:07.291Z,98785.63
2023-04-16T15:00:37.538Z,98782.72
2023-04-16T15:03:05.071Z,98793.06
2023-04-16T15:05:32.028Z,98790.84
2023-04-16T15:07:58.851Z,98792.72
2023-04-16T15:10:25.670Z,98792.63
2023-04-16T15:12:52.402Z,98797.13
2023-04-16T15:15:19.296Z,98788.47
2023-04-16T15:17:46.179Z,98806.72
2023-04-16T15:20:13.476Z,98793.16
2023-04-16T15:22:40.342Z,98801.75
2023-04-16T15:25:07.800Z,98802.38
2023-04-16T15:27:34.663Z,98805.31
2023-04-16T15:30:01.337Z,98811.13
2023-04-16T15:32:28.485Z,98804.66
2023-04-16T15:34:55.334Z,98802.38
2023-04-16T15:37:22.072Z,98818.84
2023-04-16T15:39:48.767Z,98821.00
2023-04-16T15:42:16.263Z,98823.81
2023-04-16T15:44:43.049Z,98819.28
2023-04-16T15:47:09.801Z,98834.34
2023-04-16T15:49:36.617Z,98830.25
2023-04-16T15:52:03.559Z,98830.53
2023-04-16T15:54:31.773Z,98821.88
2023-04-16T15:56:58.884Z,98828.75
2023-04-16T15:59:26.844Z,98824.94
2023-04-16T16:01:53.842Z,98833.47
2023-04-16T16:04:26.188Z,98844.13
2023-04-16T16:06:53.850Z,98844.63
2023-04-16T16:09:25.803Z,98848.47
2023-04-16T16:11:54.364Z,98852.25
2023-04-16T16:14:22.218Z,98853.84
2023-04-16T16:16:49.178Z,98855.03
2023-04-16T16:19:16.463Z,98855.78
2023-04-16T16:21:43.454Z,98862.09
2023-04-16T16:24:10.297Z,98859.78
2023-04-16T16:26:37.501Z,98857.59
2023-04-16T16:29:04.685Z,98856.16
2023-04-16T16:31:31.525Z,98865.00
2023-04-16T16:33:58.375Z,98865.78
2023-04-16T16:36:26.174Z,98869.38
2023-04-16T16:38:53.030Z,98873.16
2023-04-16T16:41:19.738Z,98874.50
2023-04-16T16:43:46.767Z,98874.19
2023-04-16T16:46:13.546Z,98879.66
2023-04-16T16:48:40.439Z,98882.56
2023-04-16T16:51:10.510Z,98885.22
2023-04-16T16:53:37.185Z,98891.31
2023-04-16T16:56:04.039Z,98897.53
2023-04-16T16:58:30.855Z,98892.34
2023-04-16T17:00:57.631Z,98892.88
2023-04-16T17:03:24.435Z,98892.84
2023-04-16T17:05:51.380Z,98895.09
2023-04-16T17:08:18.111Z,98897.22
2023-04-16T17:10:44.934Z,98902.75
2023-04-16T17:13:13.678Z,98898.66
2023-04-16T17:15:40.941Z,98902.78
2023-04-16T17:18:07.757Z,98908.34
2023-04-16T17:20:34.824Z,98908.09
2023-04-16T17:23:01.594Z,98909.97
2023-04-16T17:25:28.425Z,98915.97
2023-04-16T17:27:55.427Z,98915.97
2023-04-16T17:30:25.394Z,98911.16
2023-04-16T17:32:52.383Z,98912.19
2023-04-16T17:35:19.575Z,98913.22
2023-04-16T17:37:46.410Z,98910.44
2023-04-16T17:40:15.438Z,98910.63
2023-04-16T17:42:42.660Z,98911.91
2023-04-16T17:45:09.854Z,98919.06
2023-04-16T17:47:37.586Z,98925.00
2023-04-16T17:50:04.872Z,98923.28
2023-04-16T17:52:31.630Z,98927.31
2023-04-16T17:55:01.521Z,98924.66
2023-04-16T17:57:28.750Z,98932.31
2023-04-16T17:59:55.970Z,98932.00
2023-04-16T18:02:23.169Z,98937.34
2023-04-16T18:04:50.458Z,98944.66
2023-04-16T18:07:17.469Z,98948.97
2023-04-16T18:09:44.253Z,98953.41
2023-04-16T18:12:11.194Z,98949.88
2023-04-16T18:14:38.834Z,98945.31
2023-04-16T18:17:06.668Z,98948.91
2023-04-16T18:19:33.571Z,98957.19
2023-04-16T18:22:00.615Z,98955.81
2023-04-16T18:24:27.335Z,98964.72
2023-04-16T18:26:55.288Z,98961.47
2023-04-16T18:29:25.041Z,98962.47
2023-04-16T18:31:52.489Z,98966.72
2023-04-16T18:34:19.396Z,98964.94
2023-04-16T18:36:46.794Z,98969.38
2023-04-16T18:39:13.528Z,98969.75
2023-04-16T18:41:41.632Z,98976.19
2023-04-16T18:44:10.676Z,98973.53
2023-04-16T18:46:37.627Z,98971.81
2023-04-16T18:49:04.561Z,98980.69
2023-04-16T18:51:31.640Z,98980.69
2023-04-16T18:53:58.628Z,98975.38
2023-04-16T18:56:25.496Z,98979.81
2023-04-16T18:58:52.253Z,98972.53
2023-04-16T19:01:18.959Z,98988.44
2023-04-16T19:03:46.071Z,98986.56
2023-04-16T19:06:12.933Z,98983.84
2023-04-16T19:08:39.667Z,98983.06
2023-04-16T19:11:06.459Z,98990.00
2023-04-16T19:13:33.184Z,98982.00
2023-04-16T19:16:02.052Z,98986.22
2023-04-16T19:18:28.983Z,98988.81
2023-04-16T19:21:00.565Z,98988.09
2023-04-16T19:23:28.116Z,98984.44
2023-04-16T19:25:57.817Z,98985.47
2023-04-16T19:28:24.996Z,98988.28
2023-04-16T19:30:52.675Z,98980.22
2023-04-16T19:33:19.699Z,98988.38
2023-04-16T19:35:47.263Z,98985.56
2023-04-16T19:38:14.141Z,98988.38
2023-04-16T19:40:44.386Z,98985.03
2023-04-16T19:43:11.064Z,98986.91
2023-04-16T19:45:46.570Z,98991.41
2023-04-16T19:48:14.350Z,98988.75
2023-04-16T19:50:42.143Z,98987.94
2023-04-16T19:53:09.237Z,98991.81
2023-04-16T19:55:36.540Z,98988.22
2023-04-16T19:58:06.325Z,98991.81
2023-04-16T20:00:37.954Z,98991.00
2023-04-16T20:03:05.586Z,98992.88
2023-04-16T20:05:32.511Z,98994.78
2023-04-16T20:07:59.521Z,98991.19
2023-04-16T20:10:26.586Z,98999.16
2023-04-16T20:12:53.395Z,98996.56
2023-04-16T20:15:20.296Z,98995.59
2023-04-16T20:17:47.138Z,98998.34
2023-04-16T20:20:15.882Z,99002.09
2023-04-16T20:22:43.495Z,99008.28
2023-04-16T20:25:10.572Z,99003.91
2023-04-16T20:27:37.444Z,99008.44
2023-04-16T20:30:06.038Z,99002.94
2023-04-16T20:32:33.065Z,98997.38
2023-04-16T20:34:59.951Z,99002.56
2023-04-16T20:37:28.804Z,98997.34
2023-04-16T20:39:56.204Z,99002.50
2023-04-16T20:42:26.139Z,98995.50
2023-04-16T20:44:56.451Z,99001.66
2023-04-16T20:47:23.754Z,98998.25
2023-04-16T20:49:52.776Z,98995.75
2023-04-16T20:52:19.786Z,98989.44
2023-04-16T20:54:47.204Z,98992.34
2023-04-16T20:57:14.009Z,98994.28
2023-04-16T20:59:40.899Z,98998.91
2023-04-16T21:02:07.954Z,98991.63
2023-04-16T21:04:34.925Z,98988.16
2023-04-16T21:07:04.145Z,98985.38
2023-04-16T21:09:31.449Z,98988.16
2023-04-16T21:11:58.585Z,98984.72
2023-04-16T21:14:25.402Z,98981.97
2023-04-16T21:16:52.088Z,98988.06
2023-04-16T21:19:18.795Z,98984.34
2023-04-16T21:21:45.514Z,98989.03
2023-04-16T21:24:12.278Z,98987.44
2023-04-16T21:26:39.088Z,98986.47
2023-04-16T21:29:05.947Z,98992.88
2023-04-16T21:31:32.724Z,98987.72
2023-04-16T21:33:59.425Z,98991.34
2023-04-16T21:36:27.762Z,98997.63
2023-04-16T21:38:54.869Z,98993.91
2023-04-16T21:41:21.662Z,98990.56
2023-04-16T21:43:48.648Z,98995.88
2023-04-16T21:46:15.426Z,98999.25
2023-04-16T21:48:42.210Z,98996.59
2023-04-16T21:51:09.985Z,98992.41
2023-04-16T21:53:38.594Z,98991.88
2023-04-16T21:56:06.322Z,98996.91
2023-04-16T21:58:33.052Z,98990.78
2023-04-16T22:00:59.736Z,98995.09
2023-04-16T22:03:27.903Z,98993.47
2023-04-16T22:06:00.799Z,98991.78
2023-04-16T22:08:28.962Z,98987.34
2023-04-16T22:11:00.177Z,98992.72
2023-04-16T22:13:27.135Z,98991.69
2023-04-16T22:15:54.888Z,98991.84
2023-04-16T22:18:26.929Z,98992.66
2023-04-16T22:20:54.984Z,98989.22
2023-04-16T22:23:25.509Z,98997.19
2023-04-16T22:25:54.340Z,98986.63
2023-04-16T22:28:21.201Z,98989.41
2023-04-16T22:30:47.917Z,98981.63
2023-04-16T22:33:14.977Z,98984.25
2023-04-16T22:35:42.016Z,98983.25
2023-04-16T22:38:08.938Z,98982.81
2023-04-16T22:40:35.827Z,98979.41
2023-04-16T22:43:02.560Z,98972.94
2023-04-16T22:45:29.415Z,98978.38
2023-04-16T22:47:56.134Z,98977.44
2023-04-16T22:50:23.170Z,98981.75
2023-04-16T22:52:50.064Z,98989.81
2023-04-16T22:55:16.871Z,98990.75
2023-04-16T22:57:43.589Z,98989.81
2023-04-16T23:00:16.865Z,98983.91
2023-04-16T23:02:44.279Z,98974.94
2023-04-16T23:05:11.694Z,98982.97
2023-04-16T23:07:38.688Z,98980.38
2023-04-16T23:10:06.157Z,98981.19
2023-04-16T23:12:32.910Z,98976.09
2023-04-16T23:15:00.566Z,98977.16
2023-04-16T23:17:28.116Z,98980.84
2023-04-16T23:19:54.937Z,98981.84
2023-04-16T23:22:21.741Z,98981.78
2023-04-16T23:24:48.481Z,98983.47
2023-04-16T23:27:15.527Z,98980.78
2023-04-16T23:29:42.263Z,98987.84
2023-04-16T23:32:08.995Z,98976.28
2023-04-16T23:34:35.683Z,98983.28
2023-04-16T23:37:02.337Z,98984.88
2023-04-16T23:39:29.025Z,98972.28
2023-04-16T23:41:57.504Z,98979.41
2023-04-16T23:44:24.276Z,98983.03
2023-04-16T23:46:51.117Z,98972.28
2023-04-16T23:49:18.081Z,98975.09
2023-04-16T23:51:44.700Z,98979.50
2023-04-16T23:54:11.561Z,98971.47
2023-04-16T23:56:38.242Z,98968.97
2023-04-16T23:59:04.969Z,98966.31
